sensor_id;sensor_type;location;lat;lon;timestamp;temperature;humidity
44305;DHT22;30019;50.576;8.568;2024-02-15T00:01:30;10.00;88.60
44305;DHT22;30019;50.576;8.568;2024-02-15T00:03:56;10.00;88.30
44305;DHT22;30019;50.576;8.568;2024-02-15T00:06:22;10.00;88.40
44305;DHT22;30019;50.576;8.568;2024-02-15T00:08:48;10.00;88.40
44305;DHT22;30019;50.576;8.568;2024-02-15T00:11:15;10.10;88.80
44305;DHT22;30019;50.576;8.568;2024-02-15T00:13:40;10.20;88.10
44305;DHT22;30019;50.576;8.568;2024-02-15T00:16:06;10.10;87.70
44305;DHT22;30019;50.576;8.568;2024-02-15T00:18:32;10.00;87.90
44305;DHT22;30019;50.576;8.568;2024-02-15T00:20:57;10.00;87.70
44305;DHT22;30019;50.576;8.568;2024-02-15T00:23:25;10.10;87.90
44305;DHT22;30019;50.576;8.568;2024-02-15T00:25:50;10.10;87.20
44305;DHT22;30019;50.576;8.568;2024-02-15T00:28:16;10.00;87.10
44305;DHT22;30019;50.576;8.568;2024-02-15T00:30:42;10.00;87.30
44305;DHT22;30019;50.576;8.568;2024-02-15T00:33:08;10.10;87.10
44305;DHT22;30019;50.576;8.568;2024-02-15T00:35:33;10.00;87.00
44305;DHT22;30019;50.576;8.568;2024-02-15T00:37:59;10.00;86.80
44305;DHT22;30019;50.576;8.568;2024-02-15T00:40:24;10.10;87.10
44305;DHT22;30019;50.576;8.568;2024-02-15T00:42:50;10.10;86.80
44305;DHT22;30019;50.576;8.568;2024-02-15T00:45:16;9.90;88.40
44305;DHT22;30019;50.576;8.568;2024-02-15T00:47:41;10.00;88.50
44305;DHT22;30019;50.576;8.568;2024-02-15T00:50:08;10.00;87.20
44305;DHT22;30019;50.576;8.568;2024-02-15T00:52:34;9.80;88.10
44305;DHT22;30019;50.576;8.568;2024-02-15T00:54:59;9.80;88.50
44305;DHT22;30019;50.576;8.568;2024-02-15T00:57:25;9.90;87.80
44305;DHT22;30019;50.576;8.568;2024-02-15T00:59:51;9.60;87.10
44305;DHT22;30019;50.576;8.568;2024-02-15T01:02:17;9.70;87.50
44305;DHT22;30019;50.576;8.568;2024-02-15T01:04:43;9.50;87.30
44305;DHT22;30019;50.576;8.568;2024-02-15T01:07:11;9.50;87.20
44305;DHT22;30019;50.576;8.568;2024-02-15T01:09:36;9.40;87.20
44305;DHT22;30019;50.576;8.568;2024-02-15T01:12:02;9.40;87.10
44305;DHT22;30019;50.576;8.568;2024-02-15T01:14:31;9.40;87.10
44305;DHT22;30019;50.576;8.568;2024-02-15T01:16:57;9.30;86.80
44305;DHT22;30019;50.576;8.568;2024-02-15T01:19:23;9.30;87.10
44305;DHT22;30019;50.576;8.568;2024-02-15T01:21:48;9.30;87.80
44305;DHT22;30019;50.576;8.568;2024-02-15T01:24:14;9.40;88.40
44305;DHT22;30019;50.576;8.568;2024-02-15T01:26:39;9.50;88.60
44305;DHT22;30019;50.576;8.568;2024-02-15T01:29:05;9.50;88.30
44305;DHT22;30019;50.576;8.568;2024-02-15T01:31:31;9.60;88.40
44305;DHT22;30019;50.576;8.568;2024-02-15T01:33:56;9.50;88.60
44305;DHT22;30019;50.576;8.568;2024-02-15T01:36:22;9.50;88.20
44305;DHT22;30019;50.576;8.568;2024-02-15T01:38:48;9.70;88.70
44305;DHT22;30019;50.576;8.568;2024-02-15T01:41:13;9.50;88.20
44305;DHT22;30019;50.576;8.568;2024-02-15T01:43:43;9.60;88.20
44305;DHT22;30019;50.576;8.568;2024-02-15T01:46:10;9.60;88.60
44305;DHT22;30019;50.576;8.568;2024-02-15T01:48:37;9.70;88.50
44305;DHT22;30019;50.576;8.568;2024-02-15T01:51:03;9.70;88.60
44305;DHT22;30019;50.576;8.568;2024-02-15T01:53:29;9.70;88.60
44305;DHT22;30019;50.576;8.568;2024-02-15T01:55:56;9.60;88.60
44305;DHT22;30019;50.576;8.568;2024-02-15T01:58:24;9.60;88.10
44305;DHT22;30019;50.576;8.568;2024-02-15T02:00:50;9.60;88.70
44305;DHT22;30019;50.576;8.568;2024-02-15T02:03:16;9.70;88.40
44305;DHT22;30019;50.576;8.568;2024-02-15T02:05:43;9.70;88.10
44305;DHT22;30019;50.576;8.568;2024-02-15T02:08:08;9.80;88.30
44305;DHT22;30019;50.576;8.568;2024-02-15T02:10:41;9.80;87.90
44305;DHT22;30019;50.576;8.568;2024-02-15T02:13:06;9.70;88.10
44305;DHT22;30019;50.576;8.568;2024-02-15T02:15:33;9.80;87.80
44305;DHT22;30019;50.576;8.568;2024-02-15T02:18:01;9.80;87.50
44305;DHT22;30019;50.576;8.568;2024-02-15T02:20:27;9.80;87.50
44305;DHT22;30019;50.576;8.568;2024-02-15T02:22:54;9.90;87.50
44305;DHT22;30019;50.576;8.568;2024-02-15T02:25:25;9.80;87.40
44305;DHT22;30019;50.576;8.568;2024-02-15T02:27:54;9.70;87.50
44305;DHT22;30019;50.576;8.568;2024-02-15T02:30:21;9.70;87.40
44305;DHT22;30019;50.576;8.568;2024-02-15T02:32:47;9.70;87.50
44305;DHT22;30019;50.576;8.568;2024-02-15T02:35:13;9.70;87.30
44305;DHT22;30019;50.576;8.568;2024-02-15T02:37:41;9.60;87.40
44305;DHT22;30019;50.576;8.568;2024-02-15T02:40:08;9.60;87.10
44305;DHT22;30019;50.576;8.568;2024-02-15T02:42:53;9.60;87.30
44305;DHT22;30019;50.576;8.568;2024-02-15T02:45:19;9.50;87.30
44305;DHT22;30019;50.576;8.568;2024-02-15T02:47:48;9.60;87.80
44305;DHT22;30019;50.576;8.568;2024-02-15T02:50:13;9.60;87.60
44305;DHT22;30019;50.576;8.568;2024-02-15T02:52:39;9.70;87.60
44305;DHT22;30019;50.576;8.568;2024-02-15T02:55:05;9.70;87.50
44305;DHT22;30019;50.576;8.568;2024-02-15T02:57:35;9.70;87.50
44305;DHT22;30019;50.576;8.568;2024-02-15T03:00:06;9.70;87.40
44305;DHT22;30019;50.576;8.568;2024-02-15T03:02:38;9.60;87.60
44305;DHT22;30019;50.576;8.568;2024-02-15T03:05:05;9.70;87.70
44305;DHT22;30019;50.576;8.568;2024-02-15T03:07:35;9.60;87.80
44305;DHT22;30019;50.576;8.568;2024-02-15T03:10:05;9.70;87.80
44305;DHT22;30019;50.576;8.568;2024-02-15T03:12:37;9.70;87.70
44305;DHT22;30019;50.576;8.568;2024-02-15T03:15:06;9.80;87.50
44305;DHT22;30019;50.576;8.568;2024-02-15T03:17:45;9.80;87.30
44305;DHT22;30019;50.576;8.568;2024-02-15T03:20:12;9.80;87.50
44305;DHT22;30019;50.576;8.568;2024-02-15T03:22:55;9.80;87.30
44305;DHT22;30019;50.576;8.568;2024-02-15T03:25:21;9.80;87.40
44305;DHT22;30019;50.576;8.568;2024-02-15T03:27:51;9.80;87.30
44305;DHT22;30019;50.576;8.568;2024-02-15T03:30:20;9.80;87.30
44305;DHT22;30019;50.576;8.568;2024-02-15T03:32:46;9.80;87.30
44305;DHT22;30019;50.576;8.568;2024-02-15T03:35:17;9.80;87.40
44305;DHT22;30019;50.576;8.568;2024-02-15T03:37:43;9.70;87.20
44305;DHT22;30019;50.576;8.568;2024-02-15T03:40:09;9.70;87.70
44305;DHT22;30019;50.576;8.568;2024-02-15T03:42:35;9.80;87.70
44305;DHT22;30019;50.576;8.568;2024-02-15T03:45:05;9.80;87.50
44305;DHT22;30019;50.576;8.568;2024-02-15T03:47:32;9.80;87.40
44305;DHT22;30019;50.576;8.568;2024-02-15T03:49:59;9.80;87.30
44305;DHT22;30019;50.576;8.568;2024-02-15T03:52:24;9.70;87.40
44305;DHT22;30019;50.576;8.568;2024-02-15T03:54:50;9.80;87.70
44305;DHT22;30019;50.576;8.568;2024-02-15T03:57:15;9.70;87.80
44305;DHT22;30019;50.576;8.568;2024-02-15T03:59:42;9.70;87.80
44305;DHT22;30019;50.576;8.568;2024-02-15T04:02:08;9.80;87.80
44305;DHT22;30019;50.576;8.568;2024-02-15T04:04:39;9.70;87.70
44305;DHT22;30019;50.576;8.568;2024-02-15T04:07:07;9.70;88.00
44305;DHT22;30019;50.576;8.568;2024-02-15T04:09:33;9.80;87.90
44305;DHT22;30019;50.576;8.568;2024-02-15T04:12:01;9.80;87.60
44305;DHT22;30019;50.576;8.568;2024-02-15T04:14:27;9.80;87.50
44305;DHT22;30019;50.576;8.568;2024-02-15T04:16:52;9.80;87.50
44305;DHT22;30019;50.576;8.568;2024-02-15T04:19:18;9.90;87.60
44305;DHT22;30019;50.576;8.568;2024-02-15T04:21:47;9.70;87.50
44305;DHT22;30019;50.576;8.568;2024-02-15T04:24:13;9.70;88.10
44305;DHT22;30019;50.576;8.568;2024-02-15T04:26:39;9.80;87.90
44305;DHT22;30019;50.576;8.568;2024-02-15T04:29:05;9.80;87.60
44305;DHT22;30019;50.576;8.568;2024-02-15T04:31:34;9.90;87.70
44305;DHT22;30019;50.576;8.568;2024-02-15T04:34:02;9.90;87.20
44305;DHT22;30019;50.576;8.568;2024-02-15T04:36:28;9.70;87.40
44305;DHT22;30019;50.576;8.568;2024-02-15T04:38:59;9.80;87.80
44305;DHT22;30019;50.576;8.568;2024-02-15T04:41:26;9.80;87.50
44305;DHT22;30019;50.576;8.568;2024-02-15T04:43:52;9.70;87.40
44305;DHT22;30019;50.576;8.568;2024-02-15T04:46:18;9.80;87.60
44305;DHT22;30019;50.576;8.568;2024-02-15T04:48:47;9.80;87.50
44305;DHT22;30019;50.576;8.568;2024-02-15T04:51:15;9.80;87.30
44305;DHT22;30019;50.576;8.568;2024-02-15T04:53:45;9.80;87.40
44305;DHT22;30019;50.576;8.568;2024-02-15T04:56:12;9.90;87.00
44305;DHT22;30019;50.576;8.568;2024-02-15T04:58:40;9.90;86.70
44305;DHT22;30019;50.576;8.568;2024-02-15T05:01:16;9.90;86.80
44305;DHT22;30019;50.576;8.568;2024-02-15T05:03:45;9.80;86.70
44305;DHT22;30019;50.576;8.568;2024-02-15T05:06:11;9.90;87.10
44305;DHT22;30019;50.576;8.568;2024-02-15T05:08:39;9.80;86.90
44305;DHT22;30019;50.576;8.568;2024-02-15T05:11:11;9.90;86.90
44305;DHT22;30019;50.576;8.568;2024-02-15T05:13:48;9.90;86.80
44305;DHT22;30019;50.576;8.568;2024-02-15T05:16:16;9.80;86.80
44305;DHT22;30019;50.576;8.568;2024-02-15T05:18:42;9.80;87.10
44305;DHT22;30019;50.576;8.568;2024-02-15T05:21:08;9.90;87.20
44305;DHT22;30019;50.576;8.568;2024-02-15T05:23:35;9.90;86.70
44305;DHT22;30019;50.576;8.568;2024-02-15T05:26:01;9.90;87.00
44305;DHT22;30019;50.576;8.568;2024-02-15T05:28:26;10.00;86.40
44305;DHT22;30019;50.576;8.568;2024-02-15T05:31:13;9.90;86.90
44305;DHT22;30019;50.576;8.568;2024-02-15T05:33:43;9.90;86.90
44305;DHT22;30019;50.576;8.568;2024-02-15T05:36:13;9.90;87.20
44305;DHT22;30019;50.576;8.568;2024-02-15T05:38:39;9.90;87.40
44305;DHT22;30019;50.576;8.568;2024-02-15T05:41:05;9.90;87.60
44305;DHT22;30019;50.576;8.568;2024-02-15T05:43:34;9.90;87.20
44305;DHT22;30019;50.576;8.568;2024-02-15T05:46:02;10.00;85.90
44305;DHT22;30019;50.576;8.568;2024-02-15T05:48:28;9.90;87.40
44305;DHT22;30019;50.576;8.568;2024-02-15T05:50:57;10.10;85.90
44305;DHT22;30019;50.576;8.568;2024-02-15T05:53:23;10.10;85.90
44305;DHT22;30019;50.576;8.568;2024-02-15T05:55:50;10.00;85.70
44305;DHT22;30019;50.576;8.568;2024-02-15T05:58:16;10.00;85.70
44305;DHT22;30019;50.576;8.568;2024-02-15T06:00:42;9.90;87.00
44305;DHT22;30019;50.576;8.568;2024-02-15T06:03:12;9.80;87.40
44305;DHT22;30019;50.576;8.568;2024-02-15T06:05:38;9.90;87.60
44305;DHT22;30019;50.576;8.568;2024-02-15T06:08:05;10.00;86.00
44305;DHT22;30019;50.576;8.568;2024-02-15T06:10:31;10.00;85.70
44305;DHT22;30019;50.576;8.568;2024-02-15T06:12:57;9.90;87.10
44305;DHT22;30019;50.576;8.568;2024-02-15T06:15:24;9.90;87.30
44305;DHT22;30019;50.576;8.568;2024-02-15T06:17:50;10.00;86.40
44305;DHT22;30019;50.576;8.568;2024-02-15T06:20:16;9.80;86.70
44305;DHT22;30019;50.576;8.568;2024-02-15T06:22:47;9.90;87.10
44305;DHT22;30019;50.576;8.568;2024-02-15T06:25:13;9.80;86.80
44305;DHT22;30019;50.576;8.568;2024-02-15T06:27:40;9.70;87.00
44305;DHT22;30019;50.576;8.568;2024-02-15T06:30:09;9.50;87.20
44305;DHT22;30019;50.576;8.568;2024-02-15T06:32:53;9.40;87.50
44305;DHT22;30019;50.576;8.568;2024-02-15T06:35:37;9.40;88.10
44305;DHT22;30019;50.576;8.568;2024-02-15T06:38:23;9.30;87.80
44305;DHT22;30019;50.576;8.568;2024-02-15T06:41:07;9.40;88.50
44305;DHT22;30019;50.576;8.568;2024-02-15T06:43:34;9.40;88.10
44305;DHT22;30019;50.576;8.568;2024-02-15T06:46:00;9.40;88.40
44305;DHT22;30019;50.576;8.568;2024-02-15T06:48:26;9.40;88.30
44305;DHT22;30019;50.576;8.568;2024-02-15T06:50:52;9.40;88.50
44305;DHT22;30019;50.576;8.568;2024-02-15T06:53:18;9.40;88.60
44305;DHT22;30019;50.576;8.568;2024-02-15T06:55:46;9.40;88.60
44305;DHT22;30019;50.576;8.568;2024-02-15T06:58:17;9.50;88.90
44305;DHT22;30019;50.576;8.568;2024-02-15T07:00:43;9.50;89.00
44305;DHT22;30019;50.576;8.568;2024-02-15T07:03:09;9.60;89.00
44305;DHT22;30019;50.576;8.568;2024-02-15T07:05:36;9.60;88.90
44305;DHT22;30019;50.576;8.568;2024-02-15T07:08:07;9.70;88.70
44305;DHT22;30019;50.576;8.568;2024-02-15T07:10:37;9.80;88.70
44305;DHT22;30019;50.576;8.568;2024-02-15T07:13:04;9.80;88.80
44305;DHT22;30019;50.576;8.568;2024-02-15T07:15:29;9.80;88.50
44305;DHT22;30019;50.576;8.568;2024-02-15T07:17:58;9.90;88.40
44305;DHT22;30019;50.576;8.568;2024-02-15T07:20:24;9.90;88.40
44305;DHT22;30019;50.576;8.568;2024-02-15T07:22:50;9.90;88.40
44305;DHT22;30019;50.576;8.568;2024-02-15T07:25:15;10.00;87.20
44305;DHT22;30019;50.576;8.568;2024-02-15T07:27:41;10.10;87.00
44305;DHT22;30019;50.576;8.568;2024-02-15T07:30:07;10.10;86.90
44305;DHT22;30019;50.576;8.568;2024-02-15T07:32:34;10.20;86.80
44305;DHT22;30019;50.576;8.568;2024-02-15T07:35:01;10.00;86.70
44305;DHT22;30019;50.576;8.568;2024-02-15T07:37:26;10.00;86.90
44305;DHT22;30019;50.576;8.568;2024-02-15T07:39:52;10.10;87.00
44305;DHT22;30019;50.576;8.568;2024-02-15T07:42:18;10.20;86.80
44305;DHT22;30019;50.576;8.568;2024-02-15T07:44:44;10.20;86.70
44305;DHT22;30019;50.576;8.568;2024-02-15T07:47:09;10.30;86.50
44305;DHT22;30019;50.576;8.568;2024-02-15T07:49:36;10.30;86.70
44305;DHT22;30019;50.576;8.568;2024-02-15T07:52:02;10.30;86.60
44305;DHT22;30019;50.576;8.568;2024-02-15T07:54:29;10.40;86.60
44305;DHT22;30019;50.576;8.568;2024-02-15T07:56:56;10.40;86.30
44305;DHT22;30019;50.576;8.568;2024-02-15T07:59:23;10.40;85.80
44305;DHT22;30019;50.576;8.568;2024-02-15T08:01:49;10.50;85.70
44305;DHT22;30019;50.576;8.568;2024-02-15T08:04:18;10.50;85.80
44305;DHT22;30019;50.576;8.568;2024-02-15T08:06:44;10.50;85.60
44305;DHT22;30019;50.576;8.568;2024-02-15T08:09:10;10.60;85.40
44305;DHT22;30019;50.576;8.568;2024-02-15T08:11:39;10.60;85.30
44305;DHT22;30019;50.576;8.568;2024-02-15T08:14:06;10.60;85.50
44305;DHT22;30019;50.576;8.568;2024-02-15T08:16:33;10.60;85.50
44305;DHT22;30019;50.576;8.568;2024-02-15T08:19:00;10.70;85.40
44305;DHT22;30019;50.576;8.568;2024-02-15T08:23:53;10.80;85.30
44305;DHT22;30019;50.576;8.568;2024-02-15T08:26:18;11.00;84.90
44305;DHT22;30019;50.576;8.568;2024-02-15T08:28:44;10.70;85.20
44305;DHT22;30019;50.576;8.568;2024-02-15T08:31:09;10.90;84.90
44305;DHT22;30019;50.576;8.568;2024-02-15T08:33:36;11.00;84.30
44305;DHT22;30019;50.576;8.568;2024-02-15T08:36:04;11.20;84.20
44305;DHT22;30019;50.576;8.568;2024-02-15T08:38:30;11.30;84.00
44305;DHT22;30019;50.576;8.568;2024-02-15T08:40:56;11.20;83.50
44305;DHT22;30019;50.576;8.568;2024-02-15T08:43:22;11.10;83.40
44305;DHT22;30019;50.576;8.568;2024-02-15T08:45:47;11.20;84.10
44305;DHT22;30019;50.576;8.568;2024-02-15T08:48:13;11.30;83.40
44305;DHT22;30019;50.576;8.568;2024-02-15T08:50:39;11.40;83.00
44305;DHT22;30019;50.576;8.568;2024-02-15T08:53:07;11.50;82.50
44305;DHT22;30019;50.576;8.568;2024-02-15T08:55:32;11.50;81.80
44305;DHT22;30019;50.576;8.568;2024-02-15T08:58:01;11.60;81.90
44305;DHT22;30019;50.576;8.568;2024-02-15T09:00:27;11.50;82.30
44305;DHT22;30019;50.576;8.568;2024-02-15T09:02:53;11.50;82.80
44305;DHT22;30019;50.576;8.568;2024-02-15T09:05:19;11.60;82.80
44305;DHT22;30019;50.576;8.568;2024-02-15T09:07:47;11.60;81.90
44305;DHT22;30019;50.576;8.568;2024-02-15T09:10:14;11.60;82.00
44305;DHT22;30019;50.576;8.568;2024-02-15T09:12:41;11.80;82.20
44305;DHT22;30019;50.576;8.568;2024-02-15T09:15:08;11.80;81.80
44305;DHT22;30019;50.576;8.568;2024-02-15T09:17:34;12.00;81.60
44305;DHT22;30019;50.576;8.568;2024-02-15T09:22:32;11.90;81.30
44305;DHT22;30019;50.576;8.568;2024-02-15T09:24:58;12.00;81.80
44305;DHT22;30019;50.576;8.568;2024-02-15T09:27:24;12.10;80.80
44305;DHT22;30019;50.576;8.568;2024-02-15T09:29:49;12.10;81.00
44305;DHT22;30019;50.576;8.568;2024-02-15T09:32:15;12.20;80.50
44305;DHT22;30019;50.576;8.568;2024-02-15T09:34:40;12.20;80.30
44305;DHT22;30019;50.576;8.568;2024-02-15T09:37:07;12.10;80.30
44305;DHT22;30019;50.576;8.568;2024-02-15T09:39:33;12.00;82.00
44305;DHT22;30019;50.576;8.568;2024-02-15T09:41:58;12.10;81.30
44305;DHT22;30019;50.576;8.568;2024-02-15T09:44:25;12.20;81.30
44305;DHT22;30019;50.576;8.568;2024-02-15T09:47:03;12.20;80.00
44305;DHT22;30019;50.576;8.568;2024-02-15T09:49:37;12.30;80.60
44305;DHT22;30019;50.576;8.568;2024-02-15T09:52:07;12.30;80.80
44305;DHT22;30019;50.576;8.568;2024-02-15T09:54:39;12.20;80.90
44305;DHT22;30019;50.576;8.568;2024-02-15T09:57:07;12.40;80.00
44305;DHT22;30019;50.576;8.568;2024-02-15T09:59:33;12.60;79.60
44305;DHT22;30019;50.576;8.568;2024-02-15T10:02:01;12.80;78.30
44305;DHT22;30019;50.576;8.568;2024-02-15T10:04:27;13.00;78.10
44305;DHT22;30019;50.576;8.568;2024-02-15T10:06:53;13.10;77.70
44305;DHT22;30019;50.576;8.568;2024-02-15T10:09:23;13.50;76.00
44305;DHT22;30019;50.576;8.568;2024-02-15T10:11:58;13.40;75.90
44305;DHT22;30019;50.576;8.568;2024-02-15T10:14:25;13.70;75.60
44305;DHT22;30019;50.576;8.568;2024-02-15T10:16:55;13.90;75.00
44305;DHT22;30019;50.576;8.568;2024-02-15T10:19:21;13.90;75.00
44305;DHT22;30019;50.576;8.568;2024-02-15T10:21:54;14.00;74.80
44305;DHT22;30019;50.576;8.568;2024-02-15T10:24:23;14.00;73.30
44305;DHT22;30019;50.576;8.568;2024-02-15T10:27:01;14.20;72.40
44305;DHT22;30019;50.576;8.568;2024-02-15T10:29:32;14.20;73.30
44305;DHT22;30019;50.576;8.568;2024-02-15T10:32:00;14.70;72.30
44305;DHT22;30019;50.576;8.568;2024-02-15T10:34:26;14.80;71.70
44305;DHT22;30019;50.576;8.568;2024-02-15T10:37:16;15.00;70.40
44305;DHT22;30019;50.576;8.568;2024-02-15T10:40:06;15.30;69.90
44305;DHT22;30019;50.576;8.568;2024-02-15T10:42:33;15.40;69.40
44305;DHT22;30019;50.576;8.568;2024-02-15T10:45:03;15.40;68.40
44305;DHT22;30019;50.576;8.568;2024-02-15T10:47:31;15.60;68.90
44305;DHT22;30019;50.576;8.568;2024-02-15T10:49:57;16.20;68.00
44305;DHT22;30019;50.576;8.568;2024-02-15T10:52:25;16.20;67.10
44305;DHT22;30019;50.576;8.568;2024-02-15T10:55:03;16.40;66.20
44305;DHT22;30019;50.576;8.568;2024-02-15T10:57:31;16.40;64.90
44305;DHT22;30019;50.576;8.568;2024-02-15T10:59:59;16.00;65.80
44305;DHT22;30019;50.576;8.568;2024-02-15T11:02:37;15.90;64.50
44305;DHT22;30019;50.576;8.568;2024-02-15T11:05:07;15.20;67.00
44305;DHT22;30019;50.576;8.568;2024-02-15T11:07:37;15.00;66.70
44305;DHT22;30019;50.576;8.568;2024-02-15T11:10:04;14.60;68.90
44305;DHT22;30019;50.576;8.568;2024-02-15T11:12:33;14.40;70.70
44305;DHT22;30019;50.576;8.568;2024-02-15T11:15:00;14.20;71.30
44305;DHT22;30019;50.576;8.568;2024-02-15T11:23:02;14.20;72.00
44305;DHT22;30019;50.576;8.568;2024-02-15T11:25:35;14.20;72.40
44305;DHT22;30019;50.576;8.568;2024-02-15T11:30:50;14.70;70.10
44305;DHT22;30019;50.576;8.568;2024-02-15T11:33:36;14.90;70.10
44305;DHT22;30019;50.576;8.568;2024-02-15T11:36:06;15.20;69.70
44305;DHT22;30019;50.576;8.568;2024-02-15T11:38:36;15.20;68.30
44305;DHT22;30019;50.576;8.568;2024-02-15T11:41:03;14.90;68.70
44305;DHT22;30019;50.576;8.568;2024-02-15T11:43:45;15.10;68.10
44305;DHT22;30019;50.576;8.568;2024-02-15T11:46:15;15.10;68.90
44305;DHT22;30019;50.576;8.568;2024-02-15T11:48:43;15.20;69.90
44305;DHT22;30019;50.576;8.568;2024-02-15T11:51:09;15.50;69.00
44305;DHT22;30019;50.576;8.568;2024-02-15T11:53:37;15.70;67.10
44305;DHT22;30019;50.576;8.568;2024-02-15T11:56:03;15.40;65.70
44305;DHT22;30019;50.576;8.568;2024-02-15T11:58:30;15.30;68.10
44305;DHT22;30019;50.576;8.568;2024-02-15T12:01:11;15.30;66.10
44305;DHT22;30019;50.576;8.568;2024-02-15T12:03:55;15.40;67.10
44305;DHT22;30019;50.576;8.568;2024-02-15T12:06:40;15.80;66.40
44305;DHT22;30019;50.576;8.568;2024-02-15T12:09:24;16.10;65.20
44305;DHT22;30019;50.576;8.568;2024-02-15T12:12:12;16.20;65.60
44305;DHT22;30019;50.576;8.568;2024-02-15T12:15:03;16.10;65.00
44305;DHT22;30019;50.576;8.568;2024-02-15T12:17:47;16.30;64.60
44305;DHT22;30019;50.576;8.568;2024-02-15T12:20:31;16.20;64.90
44305;DHT22;30019;50.576;8.568;2024-02-15T12:22:57;16.40;64.10
44305;DHT22;30019;50.576;8.568;2024-02-15T12:25:25;16.50;63.30
44305;DHT22;30019;50.576;8.568;2024-02-15T12:27:54;16.40;64.00
44305;DHT22;30019;50.576;8.568;2024-02-15T12:30:20;16.20;63.30
44305;DHT22;30019;50.576;8.568;2024-02-15T12:32:50;16.10;64.20
44305;DHT22;30019;50.576;8.568;2024-02-15T12:35:17;16.10;65.70
44305;DHT22;30019;50.576;8.568;2024-02-15T12:38:01;16.10;64.20
44305;DHT22;30019;50.576;8.568;2024-02-15T12:40:33;15.90;64.20
44305;DHT22;30019;50.576;8.568;2024-02-15T12:42:59;16.00;65.10
44305;DHT22;30019;50.576;8.568;2024-02-15T12:45:26;16.10;64.10
44305;DHT22;30019;50.576;8.568;2024-02-15T12:47:53;16.50;64.60
44305;DHT22;30019;50.576;8.568;2024-02-15T12:50:23;16.30;63.20
44305;DHT22;30019;50.576;8.568;2024-02-15T12:52:50;15.70;58.60
44305;DHT22;30019;50.576;8.568;2024-02-15T12:55:17;15.30;59.20
44305;DHT22;30019;50.576;8.568;2024-02-15T12:57:49;15.40;56.70
44305;DHT22;30019;50.576;8.568;2024-02-15T13:00:20;15.20;55.90
44305;DHT22;30019;50.576;8.568;2024-02-15T13:02:47;15.50;62.50
44305;DHT22;30019;50.576;8.568;2024-02-15T13:05:18;15.50;64.80
44305;DHT22;30019;50.576;8.568;2024-02-15T13:07:44;15.60;65.20
44305;DHT22;30019;50.576;8.568;2024-02-15T13:10:10;15.70;63.40
44305;DHT22;30019;50.576;8.568;2024-02-15T13:12:36;15.70;64.30
44305;DHT22;30019;50.576;8.568;2024-02-15T13:15:04;15.50;64.20
44305;DHT22;30019;50.576;8.568;2024-02-15T13:17:31;15.50;65.20
44305;DHT22;30019;50.576;8.568;2024-02-15T13:19:59;15.50;64.50
44305;DHT22;30019;50.576;8.568;2024-02-15T13:22:36;15.30;58.10
44305;DHT22;30019;50.576;8.568;2024-02-15T13:25:07;15.20;64.30
44305;DHT22;30019;50.576;8.568;2024-02-15T13:27:34;15.20;58.70
44305;DHT22;30019;50.576;8.568;2024-02-15T13:30:00;15.10;56.20
44305;DHT22;30019;50.576;8.568;2024-02-15T13:32:26;15.00;55.50
44305;DHT22;30019;50.576;8.568;2024-02-15T13:34:51;15.10;55.30
44305;DHT22;30019;50.576;8.568;2024-02-15T13:37:20;15.10;54.40
44305;DHT22;30019;50.576;8.568;2024-02-15T13:39:47;14.90;54.40
44305;DHT22;30019;50.576;8.568;2024-02-15T13:42:13;14.90;55.00
44305;DHT22;30019;50.576;8.568;2024-02-15T13:44:39;15.00;54.50
44305;DHT22;30019;50.576;8.568;2024-02-15T13:47:04;15.00;55.00
44305;DHT22;30019;50.576;8.568;2024-02-15T13:49:30;15.00;53.70
44305;DHT22;30019;50.576;8.568;2024-02-15T13:52:00;15.00;53.90
44305;DHT22;30019;50.576;8.568;2024-02-15T13:54:30;15.00;54.60
44305;DHT22;30019;50.576;8.568;2024-02-15T13:56:56;15.00;53.60
44305;DHT22;30019;50.576;8.568;2024-02-15T13:59:22;15.00;54.20
44305;DHT22;30019;50.576;8.568;2024-02-15T14:01:49;15.10;55.30
44305;DHT22;30019;50.576;8.568;2024-02-15T14:04:15;15.30;53.60
44305;DHT22;30019;50.576;8.568;2024-02-15T14:06:42;15.30;53.60
44305;DHT22;30019;50.576;8.568;2024-02-15T14:09:10;15.30;55.10
44305;DHT22;30019;50.576;8.568;2024-02-15T14:11:37;15.20;53.50
44305;DHT22;30019;50.576;8.568;2024-02-15T14:14:03;15.10;53.60
44305;DHT22;30019;50.576;8.568;2024-02-15T14:16:29;15.10;54.40
44305;DHT22;30019;50.576;8.568;2024-02-15T14:18:55;15.10;53.50
44305;DHT22;30019;50.576;8.568;2024-02-15T14:21:20;15.10;54.00
44305;DHT22;30019;50.576;8.568;2024-02-15T14:23:46;15.10;55.50
44305;DHT22;30019;50.576;8.568;2024-02-15T14:26:12;15.00;54.60
44305;DHT22;30019;50.576;8.568;2024-02-15T14:28:37;15.00;54.50
44305;DHT22;30019;50.576;8.568;2024-02-15T14:31:07;15.00;54.60
44305;DHT22;30019;50.576;8.568;2024-02-15T14:33:51;14.90;53.70
44305;DHT22;30019;50.576;8.568;2024-02-15T14:36:17;15.00;55.40
44305;DHT22;30019;50.576;8.568;2024-02-15T14:38:43;15.00;57.00
44305;DHT22;30019;50.576;8.568;2024-02-15T14:41:19;15.00;54.70
44305;DHT22;30019;50.576;8.568;2024-02-15T14:43:46;14.90;53.90
44305;DHT22;30019;50.576;8.568;2024-02-15T14:46:11;14.70;53.40
44305;DHT22;30019;50.576;8.568;2024-02-15T14:48:37;14.80;55.10
44305;DHT22;30019;50.576;8.568;2024-02-15T14:51:05;14.80;55.40
44305;DHT22;30019;50.576;8.568;2024-02-15T14:53:31;14.80;54.10
44305;DHT22;30019;50.576;8.568;2024-02-15T14:55:57;14.80;54.50
44305;DHT22;30019;50.576;8.568;2024-02-15T14:58:23;14.70;54.50
44305;DHT22;30019;50.576;8.568;2024-02-15T15:00:48;14.70;54.70
44305;DHT22;30019;50.576;8.568;2024-02-15T15:03:15;14.90;56.70
44305;DHT22;30019;50.576;8.568;2024-02-15T15:05:41;14.90;59.30
44305;DHT22;30019;50.576;8.568;2024-02-15T15:08:25;15.00;59.40
44305;DHT22;30019;50.576;8.568;2024-02-15T15:11:09;14.80;58.10
44305;DHT22;30019;50.576;8.568;2024-02-15T15:13:53;14.70;59.30
44305;DHT22;30019;50.576;8.568;2024-02-15T15:16:19;14.70;58.90
44305;DHT22;30019;50.576;8.568;2024-02-15T15:18:49;14.60;58.50
44305;DHT22;30019;50.576;8.568;2024-02-15T15:21:21;14.60;59.50
44305;DHT22;30019;50.576;8.568;2024-02-15T15:23:48;14.50;59.60
44305;DHT22;30019;50.576;8.568;2024-02-15T15:26:19;14.40;59.70
44305;DHT22;30019;50.576;8.568;2024-02-15T15:28:45;14.40;59.70
44305;DHT22;30019;50.576;8.568;2024-02-15T15:31:10;14.30;60.10
44305;DHT22;30019;50.576;8.568;2024-02-15T15:33:36;14.20;60.00
44305;DHT22;30019;50.576;8.568;2024-02-15T15:36:03;14.10;59.90
44305;DHT22;30019;50.576;8.568;2024-02-15T15:38:29;14.10;60.70
44305;DHT22;30019;50.576;8.568;2024-02-15T15:40:55;14.00;60.00
44305;DHT22;30019;50.576;8.568;2024-02-15T15:43:21;13.90;60.10
44305;DHT22;30019;50.576;8.568;2024-02-15T15:45:47;13.80;59.90
44305;DHT22;30019;50.576;8.568;2024-02-15T15:48:13;13.70;61.00
44305;DHT22;30019;50.576;8.568;2024-02-15T15:50:39;13.60;61.70
44305;DHT22;30019;50.576;8.568;2024-02-15T15:53:06;13.60;61.40
44305;DHT22;30019;50.576;8.568;2024-02-15T15:55:36;13.60;61.90
44305;DHT22;30019;50.576;8.568;2024-02-15T15:58:01;13.50;60.50